Fort Wayne, Indiana
Current Conditions -  °F | °C
As of 6:54 PM on Wednesday 26 Nov 2014 (Local Time) from KFWA Reporting Station
Overcast Overcast  
Wind Chill: 29°   Ceiling: 2200
Heat Index: 29°   Visibility: 10mi
Dew Point: 20°   Wind: 3mph
Humidity: 69%   Direction: 70°ENE
Pressure: 30.09"   Gusts: NA
Location:  41.08°N, 85.1°W
Report Text: KFWA 262354Z 07003KT 10SM OVC022 M02/M07 A3009 RMK AO2 SLP200 T10171067 11017 21022 58002
Loading
Personal Weather Stations






























Interactive Weather Map New forecast layout! Learn more

10-Day Weather Forecast

Advertisements
Track Severe Weather on mobile